sensor_id;sensor_type;location;lat;lon;timestamp;pressure;altitude;pressure_sealevel;temperature;humidity
53940;BME280;39850;43.324;21.916;2023-04-27T00:35:10;992.0;;;9.1;60.0
53940;BME280;39850;43.324;21.916;2023-04-27T00:39:47;992.0;;;9.1;60.0
53940;BME280;39850;43.324;21.916;2023-04-27T00:44:27;992.0;;;8.6;62.0
53940;BME280;39850;43.324;21.916;2023-04-27T00:49:05;992.0;;;8.6;62.0
53940;BME280;39850;43.324;21.916;2023-04-27T00:53:43;991.0;;;8.1;62.0
53940;BME280;39850;43.324;21.916;2023-04-27T00:58:21;991.0;;;8.1;62.0
53940;BME280;39850;43.324;21.916;2023-04-27T01:02:59;991.0;;;8.0;63.0
53940;BME280;39850;43.324;21.916;2023-04-27T01:07:40;991.0;;;8.0;63.0
53940;BME280;39850;43.324;21.916;2023-04-27T01:12:17;991.0;;;8.1;62.0
53940;BME280;39850;43.324;21.916;2023-04-27T01:16:54;991.0;;;8.1;62.0
53940;BME280;39850;43.324;21.916;2023-04-27T01:21:31;991.0;;;8.1;62.0
53940;BME280;39850;43.324;21.916;2023-04-27T01:53:47;992.0;;;7.1;65.0
53940;BME280;39850;43.324;21.916;2023-04-27T01:58:25;992.0;;;7.1;65.0
53940;BME280;39850;43.324;21.916;2023-04-27T02:03:02;992.0;;;7.1;65.0
53940;BME280;39850;43.324;21.916;2023-04-27T02:07:39;992.0;;;7.1;65.0
53940;BME280;39850;43.324;21.916;2023-04-27T02:12:15;992.0;;;7.1;65.0
53940;BME280;39850;43.324;21.916;2023-04-27T02:16:52;992.0;;;7.1;65.0
53940;BME280;39850;43.324;21.916;2023-04-27T02:21:29;992.0;;;7.1;65.0
53940;BME280;39850;43.324;21.916;2023-04-27T02:26:06;992.0;;;7.2;66.0
53940;BME280;39850;43.324;21.916;2023-04-27T02:30:42;992.0;;;7.2;66.0
53940;BME280;39850;43.324;21.916;2023-04-27T02:35:19;992.0;;;7.3;66.0
53940;BME280;39850;43.324;21.916;2023-04-27T02:39:57;992.0;;;7.3;66.0
53940;BME280;39850;43.324;21.916;2023-04-27T03:12:14;992.0;;;6.4;69.0
53940;BME280;39850;43.324;21.916;2023-04-27T03:16:51;992.0;;;6.4;69.0
53940;BME280;39850;43.324;21.916;2023-04-27T03:21:28;992.0;;;6.4;69.0
53940;BME280;39850;43.324;21.916;2023-04-27T03:26:10;992.0;;;6.4;69.0
53940;BME280;39850;43.324;21.916;2023-04-27T03:30:49;992.0;;;6.4;69.0
53940;BME280;39850;43.324;21.916;2023-04-27T03:35:26;992.0;;;6.3;69.0
53940;BME280;39850;43.324;21.916;2023-04-27T03:40:08;992.0;;;6.3;69.0
53940;BME280;39850;43.324;21.916;2023-04-27T03:44:46;992.0;;;6.2;69.0
53940;BME280;39850;43.324;21.916;2023-04-27T03:49:24;992.0;;;6.2;69.0
53940;BME280;39850;43.324;21.916;2023-04-27T03:54:00;993.0;;;6.2;69.0
53940;BME280;39850;43.324;21.916;2023-04-27T03:58:37;993.0;;;6.2;69.0
53940;BME280;39850;43.324;21.916;2023-04-27T04:35:30;993.0;;;7.1;68.0
53940;BME280;39850;43.324;21.916;2023-04-27T04:40:11;993.0;;;7.1;68.0
53940;BME280;39850;43.324;21.916;2023-04-27T04:44:48;993.0;;;7.3;66.0
53940;BME280;39850;43.324;21.916;2023-04-27T04:49:25;993.0;;;7.3;66.0
53940;BME280;39850;43.324;21.916;2023-04-27T04:54:01;993.0;;;7.5;65.0
53940;BME280;39850;43.324;21.916;2023-04-27T04:58:39;993.0;;;7.5;65.0
53940;BME280;39850;43.324;21.916;2023-04-27T05:03:16;993.0;;;7.8;64.0
53940;BME280;39850;43.324;21.916;2023-04-27T05:07:52;993.0;;;7.8;64.0
53940;BME280;39850;43.324;21.916;2023-04-27T05:12:29;993.0;;;8.2;63.0
53940;BME280;39850;43.324;21.916;2023-04-27T05:17:05;993.0;;;8.2;63.0
53940;BME280;39850;43.324;21.916;2023-04-27T05:21:42;993.0;;;8.2;63.0
53940;BME280;39850;43.324;21.916;2023-04-27T06:03:14;993.0;;;14.7;39.0
53940;BME280;39850;43.324;21.916;2023-04-27T06:07:52;993.0;;;14.7;39.0
53940;BME280;39850;43.324;21.916;2023-04-27T06:12:29;993.0;;;14.7;39.0
53940;BME280;39850;43.324;21.916;2023-04-27T06:17:06;993.0;;;15.0;37.0
53940;BME280;39850;43.324;21.916;2023-04-27T06:21:43;993.0;;;15.0;37.0
53940;BME280;39850;43.324;21.916;2023-04-27T06:26:20;993.0;;;15.0;37.0
53940;BME280;39850;43.324;21.916;2023-04-27T06:30:57;993.0;;;15.0;37.0
53940;BME280;39850;43.324;21.916;2023-04-27T06:35:34;993.0;;;15.4;36.0
53940;BME280;39850;43.324;21.916;2023-04-27T06:40:13;993.0;;;15.4;36.0
53940;BME280;39850;43.324;21.916;2023-04-27T07:17:10;993.0;;;15.4;33.0
53940;BME280;39850;43.324;21.916;2023-04-27T07:21:46;993.0;;;15.4;33.0
53940;BME280;39850;43.324;21.916;2023-04-27T07:26:23;994.0;;;15.2;34.0
53940;BME280;39850;43.324;21.916;2023-04-27T07:31:02;994.0;;;15.2;34.0
53940;BME280;39850;43.324;21.916;2023-04-27T07:35:39;994.0;;;15.3;34.0
53940;BME280;39850;43.324;21.916;2023-04-27T07:40:16;994.0;;;15.3;34.0
53940;BME280;39850;43.324;21.916;2023-04-27T07:44:53;994.0;;;15.2;35.0
53940;BME280;39850;43.324;21.916;2023-04-27T07:49:29;994.0;;;15.2;35.0
53940;BME280;39850;43.324;21.916;2023-04-27T07:54:06;994.0;;;15.3;35.0
53940;BME280;39850;43.324;21.916;2023-04-27T07:58:43;994.0;;;15.3;35.0
53940;BME280;39850;43.324;21.916;2023-04-27T08:35:36;993.0;;;12.8;36.0
53940;BME280;39850;43.324;21.916;2023-04-27T08:40:14;993.0;;;12.8;36.0
53940;BME280;39850;43.324;21.916;2023-04-27T08:44:51;993.0;;;13.0;36.0
53940;BME280;39850;43.324;21.916;2023-04-27T08:49:28;993.0;;;13.0;36.0
53940;BME280;39850;43.324;21.916;2023-04-27T08:54:05;993.0;;;13.1;36.0
53940;BME280;39850;43.324;21.916;2023-04-27T08:58:42;993.0;;;13.1;36.0
53940;BME280;39850;43.324;21.916;2023-04-27T09:03:25;993.0;;;13.4;35.0
53940;BME280;39850;43.324;21.916;2023-04-27T09:08:06;993.0;;;13.4;35.0
53940;BME280;39850;43.324;21.916;2023-04-27T09:12:59;993.0;;;13.4;35.0
53940;BME280;39850;43.324;21.916;2023-04-27T09:17:36;993.0;;;13.6;34.0
53940;BME280;39850;43.324;21.916;2023-04-27T09:22:13;993.0;;;13.6;34.0
53940;BME280;39850;43.324;21.916;2023-04-27T09:54:59;993.0;;;12.7;36.0
53940;BME280;39850;43.324;21.916;2023-04-27T10:00:54;993.0;;;12.7;36.0
53940;BME280;39850;43.324;21.916;2023-04-27T10:07:11;993.0;;;13.0;36.0
53940;BME280;39850;43.324;21.916;2023-04-27T10:11:53;993.0;;;13.0;36.0
53940;BME280;39850;43.324;21.916;2023-04-27T10:16:50;993.0;;;13.2;36.0
53940;BME280;39850;43.324;21.916;2023-04-27T10:21:27;993.0;;;13.2;36.0
53940;BME280;39850;43.324;21.916;2023-04-27T10:26:08;993.0;;;13.3;35.0
53940;BME280;39850;43.324;21.916;2023-04-27T10:30:48;993.0;;;13.3;35.0
53940;BME280;39850;43.324;21.916;2023-04-27T10:35:39;993.0;;;13.2;34.0
53940;BME280;39850;43.324;21.916;2023-04-27T10:40:16;993.0;;;13.2;34.0
53940;BME280;39850;43.324;21.916;2023-04-27T11:26:52;993.0;;;13.5;35.0
53940;BME280;39850;43.324;21.916;2023-04-27T11:31:49;993.0;;;13.5;35.0
53940;BME280;39850;43.324;21.916;2023-04-27T11:36:26;993.0;;;13.4;35.0
53940;BME280;39850;43.324;21.916;2023-04-27T11:41:06;993.0;;;13.4;35.0
53940;BME280;39850;43.324;21.916;2023-04-27T11:45:44;993.0;;;13.4;35.0
53940;BME280;39850;43.324;21.916;2023-04-27T11:50:26;993.0;;;13.4;35.0
53940;BME280;39850;43.324;21.916;2023-04-27T11:55:08;993.0;;;13.2;35.0
53940;BME280;39850;43.324;21.916;2023-04-27T11:59:45;993.0;;;13.2;35.0
53940;BME280;39850;43.324;21.916;2023-04-27T12:36:38;993.0;;;13.9;40.0
53940;BME280;39850;43.324;21.916;2023-04-27T12:41:14;993.0;;;13.9;40.0
53940;BME280;39850;43.324;21.916;2023-04-27T12:45:51;993.0;;;13.5;39.0
53940;BME280;39850;43.324;21.916;2023-04-27T12:50:29;993.0;;;13.5;39.0
53940;BME280;39850;43.324;21.916;2023-04-27T12:55:09;993.0;;;13.1;40.0
53940;BME280;39850;43.324;21.916;2023-04-27T12:59:45;993.0;;;13.1;40.0
53940;BME280;39850;43.324;21.916;2023-04-27T13:04:22;993.0;;;12.8;41.0
53940;BME280;39850;43.324;21.916;2023-04-27T13:08:59;993.0;;;12.8;41.0
53940;BME280;39850;43.324;21.916;2023-04-27T13:13:36;993.0;;;12.8;41.0
53940;BME280;39850;43.324;21.916;2023-04-27T13:18:13;993.0;;;12.6;42.0
53940;BME280;39850;43.324;21.916;2023-04-27T13:22:49;993.0;;;12.6;42.0
53940;BME280;39850;43.324;21.916;2023-04-27T13:55:12;993.0;;;12.6;40.0
53940;BME280;39850;43.324;21.916;2023-04-27T13:59:49;993.0;;;12.6;40.0
53940;BME280;39850;43.324;21.916;2023-04-27T14:04:26;993.0;;;12.6;41.0
53940;BME280;39850;43.324;21.916;2023-04-27T14:09:03;993.0;;;12.6;41.0
53940;BME280;39850;43.324;21.916;2023-04-27T14:13:40;993.0;;;12.6;41.0
53940;BME280;39850;43.324;21.916;2023-04-27T14:18:18;993.0;;;12.6;42.0
53940;BME280;39850;43.324;21.916;2023-04-27T14:22:55;993.0;;;12.6;42.0
53940;BME280;39850;43.324;21.916;2023-04-27T14:27:32;993.0;;;12.4;42.0
53940;BME280;39850;43.324;21.916;2023-04-27T14:32:09;993.0;;;12.4;42.0
53940;BME280;39850;43.324;21.916;2023-04-27T14:36:46;993.0;;;12.2;42.0
53940;BME280;39850;43.324;21.916;2023-04-27T14:41:23;993.0;;;12.2;42.0
53940;BME280;39850;43.324;21.916;2023-04-27T15:18:16;993.0;;;12.6;42.0
53940;BME280;39850;43.324;21.916;2023-04-27T15:22:53;993.0;;;12.6;42.0
53940;BME280;39850;43.324;21.916;2023-04-27T15:27:29;993.0;;;12.6;42.0
53940;BME280;39850;43.324;21.916;2023-04-27T15:32:06;993.0;;;12.6;42.0
53940;BME280;39850;43.324;21.916;2023-04-27T15:36:42;993.0;;;12.7;42.0
53940;BME280;39850;43.324;21.916;2023-04-27T15:41:19;993.0;;;12.7;42.0
53940;BME280;39850;43.324;21.916;2023-04-27T15:45:56;993.0;;;12.7;42.0
53940;BME280;39850;43.324;21.916;2023-04-27T15:50:33;993.0;;;12.7;42.0
53940;BME280;39850;43.324;21.916;2023-04-27T15:55:09;993.0;;;12.7;42.0
53940;BME280;39850;43.324;21.916;2023-04-27T15:59:46;993.0;;;12.7;42.0
53940;BME280;39850;43.324;21.916;2023-04-27T16:04:23;993.0;;;12.7;42.0
53940;BME280;39850;43.324;21.916;2023-04-27T16:36:40;994.0;;;11.6;41.0
53940;BME280;39850;43.324;21.916;2023-04-27T16:41:17;994.0;;;11.6;41.0
53940;BME280;39850;43.324;21.916;2023-04-27T16:45:53;994.0;;;12.1;41.0
53940;BME280;39850;43.324;21.916;2023-04-27T16:50:30;994.0;;;12.1;41.0
53940;BME280;39850;43.324;21.916;2023-04-27T16:55:09;994.0;;;12.6;41.0
53940;BME280;39850;43.324;21.916;2023-04-27T16:59:46;994.0;;;12.6;41.0
53940;BME280;39850;43.324;21.916;2023-04-27T17:04:23;994.0;;;12.6;41.0
53940;BME280;39850;43.324;21.916;2023-04-27T17:09:01;994.0;;;12.6;40.0
53940;BME280;39850;43.324;21.916;2023-04-27T17:13:37;994.0;;;12.6;40.0
53940;BME280;39850;43.324;21.916;2023-04-27T17:18:14;994.0;;;12.6;40.0
53940;BME280;39850;43.324;21.916;2023-04-27T17:22:50;994.0;;;12.6;40.0
53940;BME280;39850;43.324;21.916;2023-04-27T17:55:08;994.0;;;11.6;42.0
53940;BME280;39850;43.324;21.916;2023-04-27T17:59:44;994.0;;;11.6;42.0
53940;BME280;39850;43.324;21.916;2023-04-27T18:04:21;994.0;;;11.6;42.0
53940;BME280;39850;43.324;21.916;2023-04-27T18:08:57;994.0;;;12.1;42.0
53940;BME280;39850;43.324;21.916;2023-04-27T18:13:34;994.0;;;12.1;42.0
53940;BME280;39850;43.324;21.916;2023-04-27T18:18:10;994.0;;;12.6;42.0
53940;BME280;39850;43.324;21.916;2023-04-27T18:22:47;994.0;;;12.6;42.0
53940;BME280;39850;43.324;21.916;2023-04-27T18:27:23;994.0;;;12.6;42.0
53940;BME280;39850;43.324;21.916;2023-04-27T18:32:00;994.0;;;12.6;42.0
53940;BME280;39850;43.324;21.916;2023-04-27T18:36:36;995.0;;;12.7;43.0
53940;BME280;39850;43.324;21.916;2023-04-27T18:41:14;995.0;;;12.7;43.0
53940;BME280;39850;43.324;21.916;2023-04-27T19:18:14;995.0;;;11.8;45.0
53940;BME280;39850;43.324;21.916;2023-04-27T19:22:50;995.0;;;11.8;45.0
53940;BME280;39850;43.324;21.916;2023-04-27T19:27:28;995.0;;;11.8;46.0
53940;BME280;39850;43.324;21.916;2023-04-27T19:32:05;995.0;;;11.8;46.0
53940;BME280;39850;43.324;21.916;2023-04-27T19:36:42;995.0;;;11.8;48.0
53940;BME280;39850;43.324;21.916;2023-04-27T19:41:19;995.0;;;11.8;48.0
53940;BME280;39850;43.324;21.916;2023-04-27T19:45:56;996.0;;;11.8;49.0
53940;BME280;39850;43.324;21.916;2023-04-27T19:50:33;996.0;;;11.8;49.0
53940;BME280;39850;43.324;21.916;2023-04-27T19:55:11;996.0;;;11.8;49.0
53940;BME280;39850;43.324;21.916;2023-04-27T19:59:48;996.0;;;11.8;50.0
53940;BME280;39850;43.324;21.916;2023-04-27T20:04:25;996.0;;;11.8;50.0
53940;BME280;39850;43.324;21.916;2023-04-27T20:36:42;996.0;;;10.1;54.0
53940;BME280;39850;43.324;21.916;2023-04-27T20:41:18;996.0;;;10.1;54.0
53940;BME280;39850;43.324;21.916;2023-04-27T20:45:55;996.0;;;10.0;54.0
53940;BME280;39850;43.324;21.916;2023-04-27T20:50:31;996.0;;;10.0;54.0
53940;BME280;39850;43.324;21.916;2023-04-27T20:55:09;996.0;;;10.0;54.0
53940;BME280;39850;43.324;21.916;2023-04-27T20:59:45;996.0;;;9.8;54.0
53940;BME280;39850;43.324;21.916;2023-04-27T21:04:22;996.0;;;9.8;54.0
53940;BME280;39850;43.324;21.916;2023-04-27T21:08:58;996.0;;;9.6;55.0
53940;BME280;39850;43.324;21.916;2023-04-27T21:13:35;996.0;;;9.6;55.0
53940;BME280;39850;43.324;21.916;2023-04-27T21:18:12;996.0;;;9.5;56.0
53940;BME280;39850;43.324;21.916;2023-04-27T21:22:48;996.0;;;9.5;56.0
53940;BME280;39850;43.324;21.916;2023-04-27T21:59:44;996.0;;;8.0;63.0
53940;BME280;39850;43.324;21.916;2023-04-27T22:04:22;996.0;;;8.0;63.0
53940;BME280;39850;43.324;21.916;2023-04-27T22:08:59;996.0;;;8.0;63.0
53940;BME280;39850;43.324;21.916;2023-04-27T22:13:37;996.0;;;8.0;63.0
53940;BME280;39850;43.324;21.916;2023-04-27T22:18:15;996.0;;;8.1;63.0
53940;BME280;39850;43.324;21.916;2023-04-27T22:22:52;996.0;;;8.1;63.0
53940;BME280;39850;43.324;21.916;2023-04-27T22:27:29;996.0;;;8.1;62.0
53940;BME280;39850;43.324;21.916;2023-04-27T22:32:06;996.0;;;8.1;62.0
53940;BME280;39850;43.324;21.916;2023-04-27T22:36:44;996.0;;;8.1;63.0
53940;BME280;39850;43.324;21.916;2023-04-27T22:41:21;996.0;;;8.1;63.0
53940;BME280;39850;43.324;21.916;2023-04-27T23:18:16;996.0;;;6.2;68.0
53940;BME280;39850;43.324;21.916;2023-04-27T23:22:53;996.0;;;6.2;68.0
53940;BME280;39850;43.324;21.916;2023-04-27T23:27:29;996.0;;;6.2;67.0
53940;BME280;39850;43.324;21.916;2023-04-27T23:32:06;996.0;;;6.2;67.0
53940;BME280;39850;43.324;21.916;2023-04-27T23:36:42;996.0;;;6.2;68.0
53940;BME280;39850;43.324;21.916;2023-04-27T23:41:19;996.0;;;6.2;68.0
53940;BME280;39850;43.324;21.916;2023-04-27T23:45:56;996.0;;;6.2;68.0
53940;BME280;39850;43.324;21.916;2023-04-27T23:50:32;996.0;;;6.2;68.0
53940;BME280;39850;43.324;21.916;2023-04-27T23:55:09;996.0;;;6.2;68.0
53940;BME280;39850;43.324;21.916;2023-04-27T23:59:46;997.0;;;6.2;68.0
